sensor_id;sensor_type;location;lat;lon;timestamp;pressure;altitude;pressure_sealevel;temperature;humidity
61128;BME280;47013;42.664;23.242;2023-03-14T00:01:15;94209.16;;;2.40;63.55
61128;BME280;47013;42.664;23.242;2023-03-14T00:03:41;94208.75;;;2.38;63.26
61128;BME280;47013;42.664;23.242;2023-03-14T00:06:07;94213.41;;;2.41;63.83
61128;BME280;47013;42.664;23.242;2023-03-14T00:08:34;94209.88;;;2.36;63.79
61128;BME280;47013;42.664;23.242;2023-03-14T00:11:11;94206.16;;;2.41;63.68
61128;BME280;47013;42.664;23.242;2023-03-14T00:13:37;94201.16;;;2.40;62.75
61128;BME280;47013;42.664;23.242;2023-03-14T00:16:12;94202.34;;;2.42;63.91
61128;BME280;47013;42.664;23.242;2023-03-14T00:18:39;94199.94;;;2.37;63.70
61128;BME280;47013;42.664;23.242;2023-03-14T00:21:06;94187.50;;;2.29;65.27
61128;BME280;47013;42.664;23.242;2023-03-14T00:23:33;94181.38;;;2.28;64.49
61128;BME280;47013;42.664;23.242;2023-03-14T00:26:00;94182.44;;;2.24;64.35
61128;BME280;47013;42.664;23.242;2023-03-14T00:28:26;94177.09;;;2.24;64.66
61128;BME280;47013;42.664;23.242;2023-03-14T00:30:52;94182.16;;;2.13;64.57
61128;BME280;47013;42.664;23.242;2023-03-14T00:33:18;94170.78;;;2.00;65.79
61128;BME280;47013;42.664;23.242;2023-03-14T00:35:55;94166.03;;;1.94;66.35
61128;BME280;47013;42.664;23.242;2023-03-14T00:38:20;94165.78;;;1.83;66.97
61128;BME280;47013;42.664;23.242;2023-03-14T00:40:46;94171.38;;;1.78;67.11
61128;BME280;47013;42.664;23.242;2023-03-14T00:43:11;94164.38;;;1.73;66.50
61128;BME280;47013;42.664;23.242;2023-03-14T00:45:37;94169.03;;;1.76;66.22
61128;BME280;47013;42.664;23.242;2023-03-14T00:48:02;94165.31;;;1.81;66.31
61128;BME280;47013;42.664;23.242;2023-03-14T00:50:28;94165.31;;;1.81;65.68
61128;BME280;47013;42.664;23.242;2023-03-14T00:52:53;94161.38;;;1.75;66.38
61128;BME280;47013;42.664;23.242;2023-03-14T00:55:18;94162.13;;;1.75;67.03
61128;BME280;47013;42.664;23.242;2023-03-14T00:57:44;94161.44;;;1.78;65.96
61128;BME280;47013;42.664;23.242;2023-03-14T01:00:10;94152.50;;;1.87;65.67
61128;BME280;47013;42.664;23.242;2023-03-14T01:02:37;94152.50;;;1.87;65.98
61128;BME280;47013;42.664;23.242;2023-03-14T01:05:03;94147.84;;;1.84;65.49
61128;BME280;47013;42.664;23.242;2023-03-14T01:07:29;94156.72;;;1.88;65.51
61128;BME280;47013;42.664;23.242;2023-03-14T01:09:54;94150.50;;;1.84;65.04
61128;BME280;47013;42.664;23.242;2023-03-14T01:12:19;94150.84;;;1.82;65.40
61128;BME280;47013;42.664;23.242;2023-03-14T01:14:45;94137.66;;;1.73;66.15
61128;BME280;47013;42.664;23.242;2023-03-14T01:17:10;94138.00;;;1.72;65.80
61128;BME280;47013;42.664;23.242;2023-03-14T01:19:35;94140.31;;;1.73;65.20
61128;BME280;47013;42.664;23.242;2023-03-14T01:22:01;94139.28;;;1.78;64.94
61128;BME280;47013;42.664;23.242;2023-03-14T01:24:26;94129.63;;;1.73;63.90
61128;BME280;47013;42.664;23.242;2023-03-14T01:26:52;94127.66;;;1.70;63.92
61128;BME280;47013;42.664;23.242;2023-03-14T01:29:17;94132.13;;;1.66;64.40
61128;BME280;47013;42.664;23.242;2023-03-14T01:31:42;94126.50;;;1.56;64.79
61128;BME280;47013;42.664;23.242;2023-03-14T01:34:08;94116.50;;;1.53;66.49
61128;BME280;47013;42.664;23.242;2023-03-14T01:36:33;94119.72;;;1.58;66.47
61128;BME280;47013;42.664;23.242;2023-03-14T01:38:59;94115.38;;;1.54;66.17
61128;BME280;47013;42.664;23.242;2023-03-14T01:41:25;94115.16;;;1.59;66.21
61128;BME280;47013;42.664;23.242;2023-03-14T01:43:52;94116.34;;;1.61;65.80
61128;BME280;47013;42.664;23.242;2023-03-14T01:46:21;94116.00;;;1.63;66.23
61128;BME280;47013;42.664;23.242;2023-03-14T01:51:27;94111.84;;;1.50;65.66
61128;BME280;47013;42.664;23.242;2023-03-14T01:54:00;94102.78;;;1.54;66.25
61128;BME280;47013;42.664;23.242;2023-03-14T01:56:27;94105.81;;;1.53;66.03
61128;BME280;47013;42.664;23.242;2023-03-14T01:58:53;94108.56;;;1.56;65.63
61128;BME280;47013;42.664;23.242;2023-03-14T02:01:21;94100.03;;;1.51;65.64
61128;BME280;47013;42.664;23.242;2023-03-14T02:03:56;94096.16;;;1.48;66.15
61128;BME280;47013;42.664;23.242;2023-03-14T02:06:29;94093.06;;;1.46;65.82
61128;BME280;47013;42.664;23.242;2023-03-14T02:08:56;94094.59;;;1.31;66.72
61128;BME280;47013;42.664;23.242;2023-03-14T02:11:28;94091.31;;;1.38;66.66
61128;BME280;47013;42.664;23.242;2023-03-14T02:13:57;94092.94;;;1.42;66.45
61128;BME280;47013;42.664;23.242;2023-03-14T02:16:24;94093.06;;;1.46;66.25
61128;BME280;47013;42.664;23.242;2023-03-14T02:18:50;94084.69;;;1.47;65.83
61128;BME280;47013;42.664;23.242;2023-03-14T02:29:10;94083.50;;;1.45;66.16
61128;BME280;47013;42.664;23.242;2023-03-14T02:31:35;94098.06;;;1.47;65.45
61128;BME280;47013;42.664;23.242;2023-03-14T02:34:01;94104.53;;;1.46;65.80
61128;BME280;47013;42.664;23.242;2023-03-14T02:36:28;94096.75;;;1.41;66.38
61128;BME280;47013;42.664;23.242;2023-03-14T02:39:13;94098.47;;;1.34;67.10
61128;BME280;47013;42.664;23.242;2023-03-14T02:41:40;94101.06;;;1.30;67.55
61128;BME280;47013;42.664;23.242;2023-03-14T02:44:07;94105.28;;;1.31;67.43
61128;BME280;47013;42.664;23.242;2023-03-14T02:46:33;94097.69;;;1.33;66.89
61128;BME280;47013;42.664;23.242;2023-03-14T02:49:04;94092.69;;;1.32;66.70
61128;BME280;47013;42.664;23.242;2023-03-14T02:51:32;94098.81;;;1.32;66.70
61128;BME280;47013;42.664;23.242;2023-03-14T02:53:57;94098.91;;;1.36;66.68
61128;BME280;47013;42.664;23.242;2023-03-14T02:56:23;94092.44;;;1.37;66.21
61128;BME280;47013;42.664;23.242;2023-03-14T02:58:48;94088.47;;;1.31;66.30
61128;BME280;47013;42.664;23.242;2023-03-14T03:01:14;94097.16;;;1.28;66.05
61128;BME280;47013;42.664;23.242;2023-03-14T03:03:39;94098.72;;;1.29;65.29
61128;BME280;47013;42.664;23.242;2023-03-14T03:06:05;94094.50;;;1.28;65.57
61128;BME280;47013;42.664;23.242;2023-03-14T03:08:31;94095.81;;;1.34;65.46
61128;BME280;47013;42.664;23.242;2023-03-14T03:10:58;94096.31;;;1.39;65.69
61128;BME280;47013;42.664;23.242;2023-03-14T03:13:23;94091.88;;;1.43;65.23
61128;BME280;47013;42.664;23.242;2023-03-14T03:15:49;94091.88;;;1.43;65.78
61128;BME280;47013;42.664;23.242;2023-03-14T03:18:14;94090.28;;;1.42;65.66
61128;BME280;47013;42.664;23.242;2023-03-14T03:20:40;94093.31;;;1.41;66.24
61128;BME280;47013;42.664;23.242;2023-03-14T03:23:05;94088.06;;;1.44;67.44
61128;BME280;47013;42.664;23.242;2023-03-14T03:25:31;94091.16;;;1.31;66.99
61128;BME280;47013;42.664;23.242;2023-03-14T03:27:57;94096.66;;;1.38;67.87
61128;BME280;47013;42.664;23.242;2023-03-14T03:30:22;94097.00;;;1.36;67.67
61128;BME280;47013;42.664;23.242;2023-03-14T03:32:48;94092.44;;;1.37;67.20
61128;BME280;47013;42.664;23.242;2023-03-14T03:35:13;94087.09;;;1.37;67.40
61128;BME280;47013;42.664;23.242;2023-03-14T03:37:39;94087.44;;;1.35;67.68
61128;BME280;47013;42.664;23.242;2023-03-14T03:40:06;94087.88;;;1.37;68.05
61128;BME280;47013;42.664;23.242;2023-03-14T03:42:32;94090.97;;;1.39;67.54
61128;BME280;47013;42.664;23.242;2023-03-14T03:44:59;94091.66;;;1.36;67.56
61128;BME280;47013;42.664;23.242;2023-03-14T03:47:25;94087.09;;;1.37;66.63
61128;BME280;47013;42.664;23.242;2023-03-14T03:49:50;94104.69;;;1.38;67.90
61128;BME280;47013;42.664;23.242;2023-03-14T03:52:16;94100.72;;;1.32;67.96
61128;BME280;47013;42.664;23.242;2023-03-14T03:54:41;94104.59;;;1.34;66.90
61128;BME280;47013;42.664;23.242;2023-03-14T03:57:07;94099.69;;;1.36;67.31
61128;BME280;47013;42.664;23.242;2023-03-14T03:59:32;94095.88;;;1.37;66.62
61128;BME280;47013;42.664;23.242;2023-03-14T04:01:57;94098.56;;;1.37;67.12
61128;BME280;47013;42.664;23.242;2023-03-14T04:04:23;94101.31;;;1.41;67.60
61128;BME280;47013;42.664;23.242;2023-03-14T04:06:48;94097.78;;;1.37;67.74
61128;BME280;47013;42.664;23.242;2023-03-14T04:09:14;94102.44;;;1.40;68.05
61128;BME280;47013;42.664;23.242;2023-03-14T04:11:39;94096.75;;;1.41;67.88
61128;BME280;47013;42.664;23.242;2023-03-14T04:14:05;94100.81;;;1.35;68.06
61128;BME280;47013;42.664;23.242;2023-03-14T04:16:30;94097.53;;;1.42;67.48
61128;BME280;47013;42.664;23.242;2023-03-14T04:18:58;94090.97;;;1.39;67.73
61128;BME280;47013;42.664;23.242;2023-03-14T04:21:24;94077.19;;;1.37;67.18
61128;BME280;47013;42.664;23.242;2023-03-14T04:23:49;94080.63;;;1.38;67.52
61128;BME280;47013;42.664;23.242;2023-03-14T04:26:15;94081.75;;;1.37;67.54
61128;BME280;47013;42.664;23.242;2023-03-14T04:28:40;94075.28;;;1.38;67.18
61128;BME280;47013;42.664;23.242;2023-03-14T04:31:11;94075.91;;;1.31;67.38
61128;BME280;47013;42.664;23.242;2023-03-14T04:33:36;94075.38;;;1.26;67.67
61128;BME280;47013;42.664;23.242;2023-03-14T04:36:03;94076.47;;;1.25;67.99
61128;BME280;47013;42.664;23.242;2023-03-14T04:38:29;94067.59;;;1.21;67.69
61128;BME280;47013;42.664;23.242;2023-03-14T04:40:55;94054.94;;;1.17;67.44
61128;BME280;47013;42.664;23.242;2023-03-14T04:43:20;94053.28;;;1.13;67.45
61128;BME280;47013;42.664;23.242;2023-03-14T04:45:46;94060.19;;;1.14;68.55
61128;BME280;47013;42.664;23.242;2023-03-14T04:48:11;94048.72;;;1.13;67.29
61128;BME280;47013;42.664;23.242;2023-03-14T04:50:37;94048.28;;;1.11;67.47
61128;BME280;47013;42.664;23.242;2023-03-14T04:53:03;94049.41;;;1.10;68.19
61128;BME280;47013;42.664;23.242;2023-03-14T04:55:28;94049.34;;;1.07;68.27
61128;BME280;47013;42.664;23.242;2023-03-14T04:57:53;94052.34;;;1.05;68.94
61128;BME280;47013;42.664;23.242;2023-03-14T05:00:19;94049.22;;;1.03;69.68
61128;BME280;47013;42.664;23.242;2023-03-14T05:02:44;94051.66;;;1.08;69.31
61128;BME280;47013;42.664;23.242;2023-03-14T05:05:10;94044.56;;;1.00;69.27
61128;BME280;47013;42.664;23.242;2023-03-14T05:07:36;94051.47;;;1.01;69.47
61128;BME280;47013;42.664;23.242;2023-03-14T05:10:01;94046.03;;;0.98;69.65
61128;BME280;47013;42.664;23.242;2023-03-14T05:12:26;94042.16;;;0.95;70.03
61128;BME280;47013;42.664;23.242;2023-03-14T05:14:52;94050.00;;;1.04;69.46
61128;BME280;47013;42.664;23.242;2023-03-14T05:17:17;94046.31;;;1.08;69.17
61128;BME280;47013;42.664;23.242;2023-03-14T05:19:44;94041.59;;;1.17;68.78
61128;BME280;47013;42.664;23.242;2023-03-14T05:22:10;94039.09;;;1.25;68.65
61128;BME280;47013;42.664;23.242;2023-03-14T05:24:35;94042.81;;;1.36;68.68
61128;BME280;47013;42.664;23.242;2023-03-14T05:27:01;94039.63;;;1.46;69.05
61128;BME280;47013;42.664;23.242;2023-03-14T05:29:27;94037.63;;;1.27;69.84
61128;BME280;47013;42.664;23.242;2023-03-14T05:31:52;94033.75;;;1.40;70.32
61128;BME280;47013;42.664;23.242;2023-03-14T05:34:17;94044.88;;;1.58;69.85
61128;BME280;47013;42.664;23.242;2023-03-14T05:36:43;94039.94;;;1.76;69.48
61128;BME280;47013;42.664;23.242;2023-03-14T05:39:08;94042.69;;;1.95;66.73
61128;BME280;47013;42.664;23.242;2023-03-14T05:41:33;94040.84;;;2.15;66.23
61128;BME280;47013;42.664;23.242;2023-03-14T05:43:59;94039.66;;;2.32;65.61
61128;BME280;47013;42.664;23.242;2023-03-14T05:46:24;94034.69;;;2.50;63.67
61128;BME280;47013;42.664;23.242;2023-03-14T05:48:50;94044.41;;;2.58;63.75
61128;BME280;47013;42.664;23.242;2023-03-14T05:51:15;94036.00;;;2.59;64.33
61128;BME280;47013;42.664;23.242;2023-03-14T05:53:40;94039.25;;;2.69;64.99
61128;BME280;47013;42.664;23.242;2023-03-14T05:56:06;94040.66;;;2.82;63.82
61128;BME280;47013;42.664;23.242;2023-03-14T05:58:32;94041.28;;;2.94;62.51
61128;BME280;47013;42.664;23.242;2023-03-14T06:00:57;94044.34;;;2.93;61.95
61128;BME280;47013;42.664;23.242;2023-03-14T06:03:23;94036.16;;;3.05;62.24
61128;BME280;47013;42.664;23.242;2023-03-14T06:05:51;94038.16;;;3.12;61.53
61128;BME280;47013;42.664;23.242;2023-03-14T06:08:17;94036.94;;;3.29;61.36
61128;BME280;47013;42.664;23.242;2023-03-14T06:10:42;94031.78;;;3.39;61.38
61128;BME280;47013;42.664;23.242;2023-03-14T06:13:07;94031.69;;;3.36;60.32
61128;BME280;47013;42.664;23.242;2023-03-14T06:15:33;94028.31;;;3.39;60.71
61128;BME280;47013;42.664;23.242;2023-03-14T06:17:58;94031.16;;;3.49;60.63
61128;BME280;47013;42.664;23.242;2023-03-14T06:20:24;94031.66;;;3.55;60.23
61128;BME280;47013;42.664;23.242;2023-03-14T06:22:49;94034.16;;;3.67;60.29
61128;BME280;47013;42.664;23.242;2023-03-14T06:25:14;94038.34;;;3.65;59.58
61128;BME280;47013;42.664;23.242;2023-03-14T06:27:40;94036.22;;;3.77;59.52
61128;BME280;47013;42.664;23.242;2023-03-14T06:30:06;94041.34;;;3.86;58.88
61128;BME280;47013;42.664;23.242;2023-03-14T06:32:32;94041.88;;;3.72;58.64
61128;BME280;47013;42.664;23.242;2023-03-14T06:34:57;94043.06;;;3.75;59.52
61128;BME280;47013;42.664;23.242;2023-03-14T06:37:27;94039.16;;;3.69;58.71
61128;BME280;47013;42.664;23.242;2023-03-14T06:39:52;94043.56;;;3.58;59.49
61128;BME280;47013;42.664;23.242;2023-03-14T06:42:18;94035.22;;;3.63;58.53
61128;BME280;47013;42.664;23.242;2023-03-14T06:44:43;94033.38;;;3.67;59.06
61128;BME280;47013;42.664;23.242;2023-03-14T06:47:08;94026.06;;;3.90;59.43
61128;BME280;47013;42.664;23.242;2023-03-14T06:49:34;94022.56;;;4.12;58.79
61128;BME280;47013;42.664;23.242;2023-03-14T06:51:59;94020.56;;;4.32;58.67
61128;BME280;47013;42.664;23.242;2023-03-14T06:54:25;94022.00;;;4.26;55.91
61128;BME280;47013;42.664;23.242;2023-03-14T06:56:50;94020.22;;;4.37;56.11
61128;BME280;47013;42.664;23.242;2023-03-14T06:59:15;94013.19;;;4.29;56.66
61128;BME280;47013;42.664;23.242;2023-03-14T07:01:41;94009.25;;;4.50;56.78
61128;BME280;47013;42.664;23.242;2023-03-14T07:04:06;93999.56;;;4.71;55.67
61128;BME280;47013;42.664;23.242;2023-03-14T07:06:33;94003.91;;;4.83;54.36
61128;BME280;47013;42.664;23.242;2023-03-14T07:08:58;94007.59;;;5.05;54.84
61128;BME280;47013;42.664;23.242;2023-03-14T07:11:24;94005.09;;;5.23;54.04
61128;BME280;47013;42.664;23.242;2023-03-14T07:13:50;94001.41;;;5.38;53.59
61128;BME280;47013;42.664;23.242;2023-03-14T07:16:15;94010.00;;;5.54;53.04
61128;BME280;47013;42.664;23.242;2023-03-14T07:18:41;94012.38;;;5.63;52.72
61128;BME280;47013;42.664;23.242;2023-03-14T07:21:07;94018.66;;;5.81;52.33
61128;BME280;47013;42.664;23.242;2023-03-14T07:23:34;94007.09;;;5.74;50.86
61128;BME280;47013;42.664;23.242;2023-03-14T07:26:00;94009.06;;;5.84;51.26
61128;BME280;47013;42.664;23.242;2023-03-14T07:28:25;94011.56;;;6.03;50.60
61128;BME280;47013;42.664;23.242;2023-03-14T07:30:55;93994.84;;;5.83;49.86
61128;BME280;47013;42.664;23.242;2023-03-14T07:33:20;93995.22;;;5.78;49.33
61128;BME280;47013;42.664;23.242;2023-03-14T07:35:49;93991.06;;;5.88;49.35
61128;BME280;47013;42.664;23.242;2023-03-14T07:38:16;93983.91;;;6.06;49.78
61128;BME280;47013;42.664;23.242;2023-03-14T07:40:41;93993.84;;;5.99;48.92
61128;BME280;47013;42.664;23.242;2023-03-14T07:43:07;93984.41;;;6.26;49.26
61128;BME280;47013;42.664;23.242;2023-03-14T07:45:32;93981.50;;;6.63;48.93
61128;BME280;47013;42.664;23.242;2023-03-14T07:47:57;93978.88;;;6.81;46.93
61128;BME280;47013;42.664;23.242;2023-03-14T07:50:26;93984.34;;;7.13;46.60
61128;BME280;47013;42.664;23.242;2023-03-14T07:52:52;93989.41;;;7.39;46.25
61128;BME280;47013;42.664;23.242;2023-03-14T07:55:18;93979.03;;;7.49;45.13
61128;BME280;47013;42.664;23.242;2023-03-14T07:57:43;93982.50;;;7.63;45.37
61128;BME280;47013;42.664;23.242;2023-03-14T08:00:09;93971.31;;;7.86;45.04
61128;BME280;47013;42.664;23.242;2023-03-14T08:02:35;93968.19;;;8.16;44.50
61128;BME280;47013;42.664;23.242;2023-03-14T08:05:02;93971.25;;;8.33;44.60
61128;BME280;47013;42.664;23.242;2023-03-14T08:07:31;93966.19;;;8.60;43.25
61128;BME280;47013;42.664;23.242;2023-03-14T08:09:56;93970.75;;;8.80;41.92
61128;BME280;47013;42.664;23.242;2023-03-14T08:12:21;93967.94;;;8.98;41.45
61128;BME280;47013;42.664;23.242;2023-03-14T08:14:47;93972.97;;;9.03;41.24
61128;BME280;47013;42.664;23.242;2023-03-14T08:17:12;93965.72;;;8.79;41.77
61128;BME280;47013;42.664;23.242;2023-03-14T08:19:37;93958.66;;;9.03;42.17
61128;BME280;47013;42.664;23.242;2023-03-14T08:22:03;93964.34;;;9.23;40.62
61128;BME280;47013;42.664;23.242;2023-03-14T08:24:29;93961.50;;;9.44;41.27
61128;BME280;47013;42.664;23.242;2023-03-14T08:26:55;93962.94;;;9.59;40.09
61128;BME280;47013;42.664;23.242;2023-03-14T08:29:20;93964.13;;;9.58;39.54
61128;BME280;47013;42.664;23.242;2023-03-14T08:31:45;93960.00;;;9.36;39.90
61128;BME280;47013;42.664;23.242;2023-03-14T08:34:11;93962.25;;;9.48;40.61
61128;BME280;47013;42.664;23.242;2023-03-14T08:36:36;93957.81;;;9.72;40.01
61128;BME280;47013;42.664;23.242;2023-03-14T08:39:02;93955.00;;;9.90;40.10
61128;BME280;47013;42.664;23.242;2023-03-14T08:41:29;93953.19;;;10.14;40.25
61128;BME280;47013;42.664;23.242;2023-03-14T08:43:54;93939.00;;;10.44;39.04
61128;BME280;47013;42.664;23.242;2023-03-14T08:46:19;93939.41;;;10.42;38.31
61128;BME280;47013;42.664;23.242;2023-03-14T08:48:47;93934.78;;;10.73;37.13
61128;BME280;47013;42.664;23.242;2023-03-14T08:51:13;93934.16;;;10.92;36.92
61128;BME280;47013;42.664;23.242;2023-03-14T08:53:42;93930.25;;;10.93;36.61
61128;BME280;47013;42.664;23.242;2023-03-14T08:56:08;93925.75;;;11.14;36.47
61128;BME280;47013;42.664;23.242;2023-03-14T08:58:35;93922.28;;;10.83;36.15
61128;BME280;47013;42.664;23.242;2023-03-14T09:01:06;93908.69;;;11.13;36.68
61128;BME280;47013;42.664;23.242;2023-03-14T09:03:32;93906.81;;;11.10;35.20
61128;BME280;47013;42.664;23.242;2023-03-14T09:06:02;93896.88;;;11.27;35.49
61128;BME280;47013;42.664;23.242;2023-03-14T09:08:28;93895.22;;;11.06;35.53
61128;BME280;47013;42.664;23.242;2023-03-14T09:10:53;93888.38;;;11.25;36.18
61128;BME280;47013;42.664;23.242;2023-03-14T09:13:19;93884.47;;;11.26;36.71
61128;BME280;47013;42.664;23.242;2023-03-14T09:15:44;93884.88;;;11.51;36.02
61128;BME280;47013;42.664;23.242;2023-03-14T09:18:09;93884.34;;;11.84;34.82
61128;BME280;47013;42.664;23.242;2023-03-14T09:20:35;93873.41;;;12.10;34.40
61128;BME280;47013;42.664;23.242;2023-03-14T09:23:00;93869.06;;;11.93;34.40
61128;BME280;47013;42.664;23.242;2023-03-14T09:25:26;93867.34;;;11.79;34.36
61128;BME280;47013;42.664;23.242;2023-03-14T09:27:51;93860.72;;;11.57;34.74
61128;BME280;47013;42.664;23.242;2023-03-14T09:30:17;93859.34;;;11.69;34.96
61128;BME280;47013;42.664;23.242;2023-03-14T09:32:42;93853.41;;;11.77;33.91
61128;BME280;47013;42.664;23.242;2023-03-14T09:35:08;93852.31;;;11.25;34.04
61128;BME280;47013;42.664;23.242;2023-03-14T09:37:33;93846.56;;;11.46;34.55
61128;BME280;47013;42.664;23.242;2023-03-14T09:39:59;93844.78;;;11.36;34.19
61128;BME280;47013;42.664;23.242;2023-03-14T09:42:26;93839.28;;;11.39;34.66
61128;BME280;47013;42.664;23.242;2023-03-14T09:45:00;93838.03;;;11.67;33.70
61128;BME280;47013;42.664;23.242;2023-03-14T09:47:27;93825.31;;;11.88;33.86
61128;BME280;47013;42.664;23.242;2023-03-14T09:49:53;93823.78;;;12.06;33.74
61128;BME280;47013;42.664;23.242;2023-03-14T09:52:26;93820.72;;;12.04;33.95
61128;BME280;47013;42.664;23.242;2023-03-14T09:54:58;93813.69;;;12.07;33.69
61128;BME280;47013;42.664;23.242;2023-03-14T09:57:26;93809.56;;;12.19;34.05
61128;BME280;47013;42.664;23.242;2023-03-14T09:59:56;93807.56;;;12.43;33.21
61128;BME280;47013;42.664;23.242;2023-03-14T10:02:24;93804.78;;;12.62;32.44
61128;BME280;47013;42.664;23.242;2023-03-14T10:04:52;93807.16;;;12.80;32.39
61128;BME280;47013;42.664;23.242;2023-03-14T10:07:29;93800.63;;;12.94;31.89
61128;BME280;47013;42.664;23.242;2023-03-14T10:09:55;93798.22;;;13.32;31.42
61128;BME280;47013;42.664;23.242;2023-03-14T10:12:33;93787.00;;;13.75;31.24
61128;BME280;47013;42.664;23.242;2023-03-14T10:15:12;93783.22;;;13.56;29.73
61128;BME280;47013;42.664;23.242;2023-03-14T10:17:49;93780.22;;;13.67;29.75
61128;BME280;47013;42.664;23.242;2023-03-14T10:25:31;93750.50;;;14.56;29.79
61128;BME280;47013;42.664;23.242;2023-03-14T10:27:58;93751.19;;;14.73;29.33
61128;BME280;47013;42.664;23.242;2023-03-14T10:30:47;93734.47;;;14.96;28.44
61128;BME280;47013;42.664;23.242;2023-03-14T10:35:44;93721.25;;;14.95;28.33
61128;BME280;47013;42.664;23.242;2023-03-14T10:38:16;93721.94;;;14.99;28.90
61128;BME280;47013;42.664;23.242;2023-03-14T10:40:47;93712.94;;;15.24;28.21
61128;BME280;47013;42.664;23.242;2023-03-14T10:43:27;93703.91;;;15.36;28.27
61128;BME280;47013;42.664;23.242;2023-03-14T10:46:01;93706.81;;;15.20;28.20
61128;BME280;47013;42.664;23.242;2023-03-14T10:48:38;93703.28;;;15.32;27.90
61128;BME280;47013;42.664;23.242;2023-03-14T10:51:11;93698.13;;;15.34;27.81
61128;BME280;47013;42.664;23.242;2023-03-14T10:53:45;93689.16;;;14.99;28.40
61128;BME280;47013;42.664;23.242;2023-03-14T10:56:13;93687.66;;;14.47;28.51
61128;BME280;47013;42.664;23.242;2023-03-14T10:58:44;93676.50;;;14.92;29.18
61128;BME280;47013;42.664;23.242;2023-03-14T11:09:45;93655.38;;;16.18;27.35
61128;BME280;47013;42.664;23.242;2023-03-14T11:14:54;93642.22;;;16.04;27.60
61128;BME280;47013;42.664;23.242;2023-03-14T11:17:31;93634.47;;;16.34;27.90
61128;BME280;47013;42.664;23.242;2023-03-14T11:23:08;93626.53;;;16.67;26.84
61128;BME280;47013;42.664;23.242;2023-03-14T11:25:35;93611.69;;;16.86;27.26
61128;BME280;47013;42.664;23.242;2023-03-14T11:28:22;93617.09;;;17.26;26.90
61128;BME280;47013;42.664;23.242;2023-03-14T11:31:27;93610.25;;;17.40;26.66
61128;BME280;47013;42.664;23.242;2023-03-14T11:33:56;93604.53;;;16.79;25.88
61128;BME280;47013;42.664;23.242;2023-03-14T11:36:29;93604.84;;;16.82;25.58
61128;BME280;47013;42.664;23.242;2023-03-14T11:38:58;93592.06;;;16.78;26.63
61128;BME280;47013;42.664;23.242;2023-03-14T11:41:33;93591.94;;;17.00;25.81
61128;BME280;47013;42.664;23.242;2023-03-14T11:44:04;93580.81;;;16.86;26.51
61128;BME280;47013;42.664;23.242;2023-03-14T11:46:46;93583.72;;;17.19;26.74
61128;BME280;47013;42.664;23.242;2023-03-14T11:51:56;93566.66;;;17.88;26.41
61128;BME280;47013;42.664;23.242;2023-03-14T11:57:08;93558.00;;;17.53;25.76
61128;BME280;47013;42.664;23.242;2023-03-14T12:02:35;93538.50;;;17.69;26.36
61128;BME280;47013;42.664;23.242;2023-03-14T12:10:37;93520.81;;;17.70;25.92
61128;BME280;47013;42.664;23.242;2023-03-14T12:13:04;93517.84;;;16.95;27.42
61128;BME280;47013;42.664;23.242;2023-03-14T12:15:29;93512.78;;;17.39;27.04
61128;BME280;47013;42.664;23.242;2023-03-14T12:17:55;93507.31;;;17.30;26.49
61128;BME280;47013;42.664;23.242;2023-03-14T12:20:23;93507.34;;;16.75;26.89
61128;BME280;47013;42.664;23.242;2023-03-14T12:22:56;93494.72;;;16.87;27.30
61128;BME280;47013;42.664;23.242;2023-03-14T12:25:28;93493.50;;;17.24;26.98
61128;BME280;47013;42.664;23.242;2023-03-14T12:38:27;93481.19;;;16.83;26.15
61128;BME280;47013;42.664;23.242;2023-03-14T12:43:38;93469.59;;;17.25;27.24
61128;BME280;47013;42.664;23.242;2023-03-14T12:48:54;93453.19;;;17.67;26.29
61128;BME280;47013;42.664;23.242;2023-03-14T12:51:34;93444.53;;;17.68;26.13
61128;BME280;47013;42.664;23.242;2023-03-14T13:01:58;93432.16;;;18.06;25.08
61128;BME280;47013;42.664;23.242;2023-03-14T13:04:31;93425.41;;;18.16;25.49
61128;BME280;47013;42.664;23.242;2023-03-14T13:06:59;93427.06;;;18.23;25.30
61128;BME280;47013;42.664;23.242;2023-03-14T13:11:51;93415.94;;;18.17;24.93
61128;BME280;47013;42.664;23.242;2023-03-14T13:14:18;93413.72;;;18.07;24.74
61128;BME280;47013;42.664;23.242;2023-03-14T13:16:49;93407.63;;;17.79;25.61
61128;BME280;47013;42.664;23.242;2023-03-14T13:19:19;93410.84;;;17.77;25.32
61128;BME280;47013;42.664;23.242;2023-03-14T13:21:46;93399.06;;;17.86;24.93
61128;BME280;47013;42.664;23.242;2023-03-14T13:24:26;93388.38;;;17.88;25.47
61128;BME280;47013;42.664;23.242;2023-03-14T13:26:53;93383.09;;;17.84;24.82
61128;BME280;47013;42.664;23.242;2023-03-14T13:29:22;93381.75;;;17.28;25.54
61128;BME280;47013;42.664;23.242;2023-03-14T13:31:50;93373.09;;;17.21;25.62
61128;BME280;47013;42.664;23.242;2023-03-14T13:34:17;93376.25;;;17.28;25.73
61128;BME280;47013;42.664;23.242;2023-03-14T13:36:43;93368.00;;;16.95;25.93
61128;BME280;47013;42.664;23.242;2023-03-14T13:39:20;93367.25;;;16.95;26.50
61128;BME280;47013;42.664;23.242;2023-03-14T13:41:59;93355.69;;;16.36;26.71
61128;BME280;47013;42.664;23.242;2023-03-14T13:44:29;93343.84;;;16.39;27.22
61128;BME280;47013;42.664;23.242;2023-03-14T13:47:00;93346.91;;;16.32;27.46
61128;BME280;47013;42.664;23.242;2023-03-14T13:49:27;93324.69;;;16.48;27.12
61128;BME280;47013;42.664;23.242;2023-03-14T13:51:54;93335.94;;;16.50;26.96
61128;BME280;47013;42.664;23.242;2023-03-14T13:54:21;93328.50;;;16.14;26.78
61128;BME280;47013;42.664;23.242;2023-03-14T13:56:47;93325.59;;;16.08;27.35
61128;BME280;47013;42.664;23.242;2023-03-14T14:01:47;93311.81;;;15.44;27.76
61128;BME280;47013;42.664;23.242;2023-03-14T14:04:22;93311.97;;;15.41;28.09
61128;BME280;47013;42.664;23.242;2023-03-14T14:06:53;93305.41;;;15.29;28.29
61128;BME280;47013;42.664;23.242;2023-03-14T14:09:40;93302.69;;;15.38;28.23
61128;BME280;47013;42.664;23.242;2023-03-14T14:12:10;93299.91;;;15.20;28.14
61128;BME280;47013;42.664;23.242;2023-03-14T14:17:08;93284.41;;;15.17;28.97